createdAt,value
2019-05-01T00:00:16.180Z,16.20
2019-05-01T00:01:10.795Z,16.90
2019-05-01T00:02:10.880Z,16.60
2019-05-01T00:03:10.991Z,15.40
2019-05-01T00:04:11.086Z,15.90
2019-05-01T00:05:11.153Z,16.80
2019-05-01T00:06:11.234Z,16.20
2019-05-01T00:08:55.402Z,15.70
2019-05-01T00:09:55.490Z,15.90
2019-05-01T00:10:55.569Z,15.90
2019-05-01T00:11:55.669Z,15.20
2019-05-01T00:12:55.753Z,16.50
2019-05-01T00:13:55.840Z,16.30
2019-05-01T00:14:55.930Z,15.90
2019-05-01T00:15:56.016Z,15.70
2019-05-01T00:16:56.105Z,16.10
2019-05-01T00:17:56.197Z,15.70
2019-05-01T00:18:56.288Z,15.50
2019-05-01T00:19:56.379Z,16.70
2019-05-01T00:20:56.466Z,16.30
2019-05-01T00:21:56.556Z,15.80
2019-05-01T00:22:56.648Z,16.10
2019-05-01T00:23:56.737Z,15.70
2019-05-01T00:24:56.835Z,15.60
2019-05-01T00:25:56.923Z,15.50
2019-05-01T00:26:57.014Z,15.30
2019-05-01T00:27:57.105Z,15.20
2019-05-01T00:28:57.196Z,15.90
2019-05-01T00:29:57.317Z,16.10
2019-05-01T00:30:57.375Z,15.90
2019-05-01T00:31:57.468Z,15.80
2019-05-01T00:32:57.557Z,16.80
2019-05-01T00:33:57.653Z,16.40
2019-05-01T00:34:57.738Z,15.90
2019-05-01T00:35:57.827Z,16.70
2019-05-01T00:36:57.930Z,16.10
2019-05-01T00:37:58.006Z,17.30
2019-05-01T00:38:58.098Z,16.00
2019-05-01T00:39:58.184Z,15.80
2019-05-01T00:40:58.275Z,16.00
2019-05-01T00:41:58.366Z,16.70
2019-05-01T00:42:58.452Z,16.50
2019-05-01T00:43:58.544Z,16.60
2019-05-01T00:44:58.631Z,16.40
2019-05-01T00:45:58.723Z,16.60
2019-05-01T00:46:58.815Z,16.90
2019-05-01T00:47:58.905Z,16.90
2019-05-01T00:48:59.001Z,16.60
2019-05-01T00:49:59.091Z,17.20
2019-05-01T00:50:59.178Z,16.60
2019-05-01T00:51:59.269Z,16.60
2019-05-01T00:52:59.361Z,16.60
2019-05-01T00:53:59.450Z,17.60
2019-05-01T00:54:59.537Z,16.90
2019-05-01T00:55:59.625Z,16.50
2019-05-01T00:56:59.716Z,18.20
2019-05-01T00:57:59.805Z,17.30
2019-05-01T00:58:59.885Z,17.00
2019-05-01T00:59:59.998Z,17.20
2019-05-01T01:01:00.079Z,17.10
2019-05-01T01:02:00.182Z,17.10
2019-05-01T01:03:00.247Z,16.80
2019-05-01T01:04:00.302Z,16.70
2019-05-01T01:05:00.392Z,16.40
2019-05-01T01:06:00.485Z,16.20
2019-05-01T01:07:00.546Z,16.70
2019-05-01T01:08:00.633Z,17.70
2019-05-01T01:09:00.703Z,17.30
2019-05-01T01:10:00.794Z,16.80
2019-05-01T01:11:00.882Z,17.00
2019-05-01T01:12:00.943Z,17.00
2019-05-01T01:13:01.061Z,16.70
2019-05-01T01:14:01.112Z,17.90
2019-05-01T01:15:01.232Z,17.60
2019-05-01T01:16:01.320Z,18.30
2019-05-01T01:17:01.361Z,17.80
2019-05-01T01:18:01.446Z,17.80
2019-05-01T01:19:01.536Z,17.40
2019-05-01T01:20:01.647Z,17.50
2019-05-01T01:21:01.747Z,17.80
2019-05-01T01:22:01.831Z,17.40
2019-05-01T01:23:01.933Z,18.30
2019-05-01T01:24:01.992Z,17.60
2019-05-01T01:25:02.075Z,16.90
2019-05-01T01:26:02.168Z,17.60
2019-05-01T01:27:02.254Z,16.90
2019-05-01T01:28:02.346Z,17.70
2019-05-01T01:29:02.426Z,17.40
2019-05-01T01:30:02.524Z,17.30
2019-05-01T01:31:02.619Z,16.90
2019-05-01T01:32:02.707Z,17.70
2019-05-01T01:33:02.792Z,17.70
2019-05-01T01:34:02.879Z,17.40
2019-05-01T01:35:02.966Z,18.00
2019-05-01T01:36:03.057Z,17.40
2019-05-01T01:37:03.150Z,17.40
2019-05-01T01:38:03.238Z,17.50
2019-05-01T01:39:03.331Z,18.10
2019-05-01T01:40:03.417Z,17.40
2019-05-01T01:41:03.506Z,17.20
2019-05-01T01:42:03.595Z,17.80
2019-05-01T01:43:03.687Z,18.10
2019-05-01T01:44:03.785Z,17.10
2019-05-01T01:45:03.866Z,18.10
2019-05-01T01:46:03.953Z,17.50
2019-05-01T01:47:04.046Z,17.30
2019-05-01T01:48:04.135Z,17.80
2019-05-01T01:49:04.228Z,17.40
2019-05-01T01:50:04.314Z,17.60
2019-05-01T01:51:04.407Z,18.00
2019-05-01T01:52:04.493Z,17.70
2019-05-01T01:53:04.585Z,17.60
2019-05-01T01:54:04.679Z,16.50
2019-05-01T01:55:04.762Z,17.60
2019-05-01T01:56:04.853Z,17.80
2019-05-01T01:57:04.943Z,17.20
2019-05-01T01:58:05.035Z,17.50
2019-05-01T01:59:05.120Z,17.80
2019-05-01T02:00:05.211Z,17.40
2019-05-01T02:01:09.684Z,17.70
2019-05-01T02:02:05.392Z,16.60
2019-05-01T02:03:05.483Z,18.00
2019-05-01T02:04:05.563Z,16.70
2019-05-01T02:05:05.650Z,16.60
2019-05-01T02:06:05.744Z,17.40
2019-05-01T02:07:05.832Z,18.00
2019-05-01T02:08:08.743Z,17.80
2019-05-01T02:09:06.008Z,16.90
2019-05-01T02:10:06.131Z,17.20
2019-05-01T02:11:06.188Z,17.80
2019-05-01T02:12:06.278Z,17.50
2019-05-01T02:13:06.366Z,17.80
2019-05-01T02:14:06.453Z,17.40
2019-05-01T02:15:06.546Z,17.80
2019-05-01T02:16:06.651Z,17.10
2019-05-01T02:17:06.740Z,17.50
2019-05-01T02:18:06.832Z,18.00
2019-05-01T02:19:06.921Z,18.00
2019-05-01T02:20:07.011Z,18.10
2019-05-01T02:21:07.100Z,18.40
2019-05-01T02:22:07.192Z,18.40
2019-05-01T02:23:07.279Z,17.70
2019-05-01T02:24:07.370Z,16.90
2019-05-01T02:25:07.459Z,18.40
2019-05-01T02:26:07.548Z,17.90
2019-05-01T02:27:07.635Z,17.40
2019-05-01T02:28:07.725Z,17.00
2019-05-01T02:29:07.808Z,17.90
2019-05-01T02:30:07.895Z,18.10
2019-05-01T02:31:07.984Z,17.90
2019-05-01T02:32:08.074Z,18.40
2019-05-01T02:33:08.167Z,18.80
2019-05-01T02:34:08.250Z,18.50
2019-05-01T02:35:08.345Z,18.50
2019-05-01T02:36:08.429Z,18.20
2019-05-01T02:37:08.518Z,18.00
2019-05-01T02:38:08.609Z,18.40
2019-05-01T02:39:08.697Z,19.10
2019-05-01T02:40:08.783Z,18.20
2019-05-01T02:41:08.876Z,17.50
2019-05-01T02:42:08.972Z,18.10
2019-05-01T02:43:09.054Z,18.60
2019-05-01T02:44:09.144Z,18.70
2019-05-01T02:45:09.235Z,18.00
2019-05-01T02:46:09.335Z,17.30
2019-05-01T02:47:09.417Z,17.50
2019-05-01T02:48:09.500Z,17.10
2019-05-01T02:49:09.593Z,17.50
2019-05-01T02:50:09.681Z,17.60
2019-05-01T02:51:09.770Z,18.20
2019-05-01T02:52:09.857Z,17.50
2019-05-01T02:53:09.948Z,17.90
2019-05-01T02:54:10.037Z,17.80
2019-05-01T02:55:10.127Z,18.50
2019-05-01T02:56:10.214Z,18.40
2019-05-01T02:57:10.302Z,17.70
2019-05-01T02:58:10.391Z,18.40
2019-05-01T02:59:10.482Z,18.40
2019-05-01T03:00:10.573Z,18.30
2019-05-01T03:01:14.193Z,17.30
2019-05-01T03:02:10.760Z,17.40
2019-05-01T03:03:10.838Z,18.00
2019-05-01T03:04:10.931Z,16.50
2019-05-01T03:05:11.018Z,17.80
2019-05-01T03:06:11.108Z,17.50
2019-05-01T03:07:11.206Z,18.50
2019-05-01T03:08:11.299Z,17.90
2019-05-01T03:09:11.384Z,17.50
2019-05-01T03:10:11.477Z,18.00
2019-05-01T03:11:11.571Z,17.90
2019-05-01T03:12:11.661Z,18.00
2019-05-01T03:13:11.756Z,18.00
2019-05-01T03:14:11.840Z,17.60
2019-05-01T03:15:11.928Z,18.30
2019-05-01T03:16:12.018Z,17.50
2019-05-01T03:17:12.110Z,18.00
2019-05-01T03:18:12.201Z,18.60
2019-05-01T03:19:12.285Z,18.50
2019-05-01T03:20:12.372Z,18.00
2019-05-01T03:21:12.467Z,18.40
2019-05-01T03:22:12.555Z,18.50
2019-05-01T03:23:12.644Z,18.80
2019-05-01T03:24:12.731Z,19.10
2019-05-01T03:25:12.825Z,18.50
2019-05-01T03:26:12.907Z,18.90
2019-05-01T03:27:13.000Z,19.40
2019-05-01T03:28:13.088Z,18.80
2019-05-01T03:29:13.176Z,19.40
2019-05-01T03:30:13.275Z,18.70
2019-05-01T03:31:13.363Z,18.50
2019-05-01T03:32:18.242Z,18.80
2019-05-01T03:33:13.546Z,19.00
2019-05-01T03:34:13.632Z,18.60
2019-05-01T03:35:13.720Z,19.40
2019-05-01T03:36:13.809Z,18.40
2019-05-01T03:37:13.907Z,18.90
2019-05-01T03:38:13.990Z,18.30
2019-05-01T03:39:14.076Z,19.30
2019-05-01T03:40:14.164Z,18.90
2019-05-01T03:41:14.258Z,19.60
2019-05-01T03:42:14.351Z,20.20
2019-05-01T03:43:14.440Z,19.30
2019-05-01T03:44:14.525Z,20.20
2019-05-01T03:45:14.614Z,19.70
2019-05-01T03:46:14.705Z,19.50
2019-05-01T03:47:14.792Z,19.20
2019-05-01T03:48:14.879Z,18.90
2019-05-01T03:49:14.970Z,19.00
2019-05-01T03:50:15.060Z,19.70
2019-05-01T03:51:15.162Z,20.30
2019-05-01T03:52:15.223Z,19.00
2019-05-01T03:53:15.333Z,20.20
2019-05-01T03:54:15.425Z,18.70
2019-05-01T03:55:15.525Z,18.80
2019-05-01T03:56:15.603Z,20.10
2019-05-01T03:57:15.700Z,18.10
2019-05-01T03:58:15.787Z,19.80
2019-05-01T03:59:15.891Z,19.30
2019-05-01T04:00:15.967Z,18.60
2019-05-01T04:01:16.063Z,19.80
2019-05-01T04:02:32.183Z,18.70
2019-05-01T04:03:16.231Z,19.10
2019-05-01T04:04:16.327Z,19.40
2019-05-01T04:05:16.405Z,19.20
2019-05-01T04:06:16.502Z,18.90
2019-05-01T04:07:16.587Z,17.90
2019-05-01T04:08:16.677Z,19.30
2019-05-01T04:09:16.768Z,19.20
2019-05-01T04:10:26.510Z,18.40
2019-05-01T04:12:56.222Z,18.30
2019-05-01T04:13:56.315Z,18.90
2019-05-01T04:14:56.406Z,17.70
2019-05-01T04:15:56.490Z,18.20
2019-05-01T04:16:56.582Z,19.20
2019-05-01T04:17:56.674Z,18.80
2019-05-01T04:18:56.766Z,19.80
2019-05-01T04:19:56.844Z,19.60
2019-05-01T04:20:56.931Z,19.80
2019-05-01T04:21:57.020Z,18.60
2019-05-01T04:22:57.108Z,19.20
2019-05-01T04:23:57.225Z,19.70
2019-05-01T04:24:57.277Z,18.90
2019-05-01T04:25:57.372Z,19.10
2019-05-01T04:26:57.469Z,19.70
2019-05-01T04:27:58.822Z,19.80
2019-05-01T04:28:57.630Z,18.50
2019-05-01T04:29:57.720Z,19.60
2019-05-01T04:30:57.822Z,19.10
2019-05-01T04:31:57.906Z,19.00
2019-05-01T04:32:57.992Z,19.50
2019-05-01T04:33:58.062Z,19.10
2019-05-01T04:34:58.157Z,19.10
2019-05-01T04:35:58.242Z,18.80
2019-05-01T04:36:58.344Z,19.00
2019-05-01T04:37:58.425Z,18.80
2019-05-01T04:38:58.513Z,19.10
2019-05-01T04:39:58.624Z,19.90
2019-05-01T04:40:58.709Z,19.90
2019-05-01T04:41:58.808Z,19.90
2019-05-01T04:42:58.894Z,18.70
2019-05-01T04:43:58.983Z,20.00
2019-05-01T04:44:59.070Z,19.60
2019-05-01T04:45:59.174Z,19.70
2019-05-01T04:46:59.262Z,20.10
2019-05-01T04:47:59.338Z,19.90
2019-05-01T04:48:59.426Z,19.60
2019-05-01T04:49:59.513Z,19.50
2019-05-01T04:50:59.597Z,20.20
2019-05-01T04:51:59.704Z,20.50
2019-05-01T04:52:59.794Z,19.90
2019-05-01T04:53:59.869Z,19.30
2019-05-01T04:54:59.960Z,18.70
2019-05-01T04:56:00.046Z,19.10
2019-05-01T04:57:00.111Z,19.00
2019-05-01T04:58:00.199Z,18.90
2019-05-01T04:59:00.284Z,19.10
2019-05-01T05:00:00.391Z,19.20
2019-05-01T05:01:00.468Z,19.80
2019-05-01T05:02:00.544Z,19.00
2019-05-01T05:03:05.117Z,19.10
2019-05-01T05:04:00.702Z,20.00
2019-05-01T05:05:00.775Z,19.10
2019-05-01T05:06:00.855Z,19.10
2019-05-01T05:07:00.930Z,19.10
2019-05-01T05:08:01.038Z,18.90
2019-05-01T05:09:01.097Z,18.80
2019-05-01T05:10:01.172Z,19.20
2019-05-01T05:11:01.260Z,19.40
2019-05-01T05:12:01.337Z,18.80
2019-05-01T05:13:01.419Z,18.60
2019-05-01T05:14:01.505Z,18.50
2019-05-01T05:15:01.585Z,18.60
2019-05-01T05:16:01.658Z,19.00
2019-05-01T05:17:01.747Z,18.20
2019-05-01T05:18:01.833Z,19.20
2019-05-01T05:19:01.933Z,20.30
2019-05-01T05:20:02.028Z,19.60
2019-05-01T05:21:02.151Z,19.70
2019-05-01T05:22:02.198Z,19.60
2019-05-01T05:23:02.295Z,19.90
2019-05-01T05:24:02.392Z,19.80
2019-05-01T05:25:02.424Z,20.10
2019-05-01T05:26:02.528Z,19.40
2019-05-01T05:27:02.656Z,19.90
2019-05-01T05:28:02.729Z,19.60
2019-05-01T05:29:02.805Z,19.70
2019-05-01T05:30:02.908Z,19.60
2019-05-01T05:31:02.971Z,20.00
2019-05-01T05:32:03.062Z,19.40
2019-05-01T05:33:03.151Z,19.40
2019-05-01T05:34:03.219Z,19.40
2019-05-01T05:35:03.325Z,19.80
2019-05-01T05:36:03.398Z,20.50
2019-05-01T05:37:03.478Z,19.00
2019-05-01T05:38:03.563Z,19.60
2019-05-01T05:39:03.628Z,19.50
2019-05-01T05:40:03.741Z,19.20
2019-05-01T05:41:03.831Z,19.60
2019-05-01T05:42:03.916Z,20.00
2019-05-01T05:43:03.989Z,19.80
2019-05-01T05:44:04.076Z,21.10
2019-05-01T05:45:04.171Z,19.60
2019-05-01T05:46:04.224Z,19.90
2019-05-01T05:47:04.315Z,20.10
2019-05-01T05:48:04.390Z,21.20
2019-05-01T05:49:04.485Z,20.50
2019-05-01T05:50:04.554Z,20.10
2019-05-01T05:51:04.654Z,20.00
2019-05-01T05:52:04.727Z,19.60
2019-05-01T05:53:04.800Z,19.60
2019-05-01T05:54:04.879Z,19.80
2019-05-01T05:55:04.964Z,19.60
2019-05-01T05:56:05.051Z,20.00
2019-05-01T05:57:05.142Z,19.30
2019-05-01T05:58:05.203Z,20.40
2019-05-01T05:59:05.280Z,19.00
2019-05-01T06:00:05.365Z,19.80
2019-05-01T06:01:05.447Z,18.90
2019-05-01T06:02:05.531Z,18.90
2019-05-01T06:03:05.644Z,19.80
2019-05-01T06:04:05.733Z,19.60
2019-05-01T06:05:05.791Z,19.20
2019-05-01T06:06:05.884Z,20.40
2019-05-01T06:07:05.977Z,20.90
2019-05-01T06:08:06.054Z,20.80
2019-05-01T06:09:08.944Z,20.20
2019-05-01T06:10:06.222Z,20.70
2019-05-01T06:11:06.313Z,21.00
2019-05-01T06:12:08.989Z,21.10
2019-05-01T06:13:06.485Z,20.70
2019-05-01T06:14:06.552Z,20.60
2019-05-01T06:15:07.594Z,20.70
2019-05-01T06:16:06.717Z,21.40
2019-05-01T06:17:06.798Z,20.40
2019-05-01T06:18:06.882Z,20.40
2019-05-01T06:19:09.755Z,20.80
2019-05-01T06:20:07.051Z,20.80
2019-05-01T06:21:07.137Z,20.90
2019-05-01T06:22:10.345Z,21.40
2019-05-01T06:23:07.309Z,20.50
2019-05-01T06:24:07.402Z,20.50
2019-05-01T06:25:07.490Z,21.00
2019-05-01T06:26:07.587Z,20.80
2019-05-01T06:27:08.820Z,20.10
2019-05-01T06:28:07.754Z,20.80
2019-05-01T06:29:07.848Z,20.50
2019-05-01T06:30:11.182Z,20.30
2019-05-01T06:31:07.981Z,20.20
2019-05-01T06:32:08.063Z,20.40
2019-05-01T06:33:09.385Z,20.90
2019-05-01T06:34:08.264Z,20.60
2019-05-01T06:35:08.326Z,21.00
2019-05-01T06:36:08.776Z,20.90
2019-05-01T06:37:08.489Z,20.50
2019-05-01T06:38:08.582Z,21.20
2019-05-01T06:39:11.786Z,20.90
2019-05-01T06:40:08.765Z,20.20
2019-05-01T06:41:08.897Z,21.40
2019-05-01T06:42:09.819Z,20.30
2019-05-01T06:43:09.000Z,20.50
2019-05-01T06:44:09.073Z,21.30
2019-05-01T06:45:13.137Z,21.50
2019-05-01T06:46:09.251Z,20.60
2019-05-01T06:47:09.342Z,21.30
2019-05-01T06:48:09.443Z,21.60
2019-05-01T06:49:09.577Z,21.50
2019-05-01T06:50:09.709Z,21.60
2019-05-01T06:51:12.990Z,21.80
2019-05-01T06:52:09.878Z,20.40
2019-05-01T06:53:09.944Z,21.60
2019-05-01T06:54:15.503Z,20.70
2019-05-01T06:55:10.075Z,21.40
2019-05-01T06:56:10.122Z,21.60
2019-05-01T06:57:10.244Z,22.00
2019-05-01T06:58:10.285Z,21.60
2019-05-01T06:59:10.389Z,21.40
2019-05-01T07:00:10.435Z,21.40
2019-05-01T07:01:13.753Z,21.00
2019-05-01T07:02:10.593Z,21.60
2019-05-01T07:03:11.700Z,20.80
2019-05-01T07:04:10.807Z,20.20
2019-05-01T07:05:14.596Z,21.60
2019-05-01T07:06:14.463Z,21.30
2019-05-01T07:07:24.724Z,21.30
2019-05-01T07:08:23.797Z,21.80
2019-05-01T07:09:11.897Z,21.30
2019-05-01T07:10:11.271Z,21.30
2019-05-01T07:11:15.459Z,21.50
2019-05-01T07:12:11.445Z,20.10
2019-05-01T07:13:11.513Z,21.20
2019-05-01T07:14:16.507Z,21.70
2019-05-01T07:15:11.716Z,20.70
2019-05-01T07:16:11.798Z,20.70
2019-05-01T07:17:13.588Z,21.80
2019-05-01T07:18:11.916Z,21.00
2019-05-01T07:19:12.048Z,21.40
2019-05-01T07:20:16.605Z,21.70
2019-05-01T07:21:12.214Z,22.00
2019-05-01T07:22:12.285Z,21.80
2019-05-01T07:23:12.666Z,21.30
2019-05-01T07:24:12.502Z,21.90
2019-05-01T07:25:12.615Z,21.00
2019-05-01T07:26:13.730Z,20.90
2019-05-01T07:27:12.757Z,21.50
2019-05-01T07:28:12.805Z,21.60
2019-05-01T07:29:12.898Z,21.70
2019-05-01T07:30:15.906Z,21.20
2019-05-01T07:31:13.063Z,20.80
2019-05-01T07:32:15.055Z,21.60
2019-05-01T07:33:16.735Z,21.20
2019-05-01T07:34:16.808Z,21.60
2019-05-01T07:35:13.435Z,21.50
2019-05-01T07:36:16.312Z,21.70
2019-05-01T07:37:13.584Z,21.50
2019-05-01T07:38:13.676Z,22.20
2019-05-01T07:39:14.595Z,22.40
2019-05-01T07:40:13.864Z,22.50
2019-05-01T07:41:13.897Z,21.60
2019-05-01T07:42:14.061Z,21.90
2019-05-01T07:43:14.062Z,22.10
2019-05-01T07:44:14.156Z,21.80
2019-05-01T07:45:14.205Z,21.60
2019-05-01T07:46:18.428Z,21.10
2019-05-01T07:47:14.395Z,22.10
2019-05-01T07:48:14.473Z,21.70
2019-05-01T07:49:17.718Z,22.00
2019-05-01T07:50:14.669Z,21.40
2019-05-01T07:51:14.775Z,22.10
2019-05-01T07:52:17.190Z,20.60
2019-05-01T07:53:14.991Z,21.20
2019-05-01T07:54:15.093Z,19.80
2019-05-01T07:55:18.212Z,20.30
2019-05-01T07:56:17.168Z,20.50
2019-05-01T07:57:15.366Z,21.00
2019-05-01T07:58:16.612Z,20.40
2019-05-01T07:59:15.570Z,21.60
2019-05-01T08:00:15.657Z,20.20
2019-05-01T08:01:18.163Z,21.90
2019-05-01T08:02:15.844Z,21.20
2019-05-01T08:03:15.955Z,20.90
2019-05-01T08:04:18.506Z,21.40
2019-05-01T08:05:16.116Z,22.20
2019-05-01T08:06:21.318Z,22.00
2019-05-01T08:07:16.322Z,22.20
2019-05-01T08:08:16.457Z,20.80
2019-05-01T08:09:16.548Z,21.40
2019-05-01T08:10:16.592Z,23.20
2019-05-01T08:11:16.726Z,22.50
2019-05-01T08:12:18.849Z,23.20
2019-05-01T08:13:16.841Z,22.10
2019-05-01T08:14:18.635Z,22.60
2019-05-01T08:15:17.025Z,22.70
2019-05-01T08:16:17.111Z,22.20
2019-05-01T08:17:17.981Z,22.60
2019-05-01T08:18:17.281Z,22.50
2019-05-01T08:19:17.368Z,21.40
2019-05-01T08:20:17.456Z,22.30
2019-05-01T08:21:21.260Z,22.50
2019-05-01T08:22:17.639Z,22.50
2019-05-01T08:23:17.737Z,22.20
2019-05-01T08:24:22.465Z,21.90
2019-05-01T08:25:17.909Z,22.30
2019-05-01T08:26:17.997Z,22.80
2019-05-01T08:27:20.224Z,22.80
2019-05-01T08:28:18.181Z,23.00
2019-05-01T08:29:18.263Z,23.10
2019-05-01T08:30:18.722Z,23.30
2019-05-01T08:31:18.451Z,22.30
2019-05-01T08:32:18.540Z,23.10
2019-05-01T08:33:18.634Z,22.00
2019-05-01T08:34:20.738Z,22.10
2019-05-01T08:35:18.815Z,23.20
2019-05-01T08:36:18.914Z,22.70
2019-05-01T08:37:22.566Z,22.00
2019-05-01T08:38:19.089Z,21.70
2019-05-01T08:39:19.175Z,22.10
2019-05-01T08:40:20.549Z,21.70
2019-05-01T08:41:19.359Z,22.20
2019-05-01T08:42:19.446Z,21.60
2019-05-01T08:43:19.543Z,21.80
2019-05-01T08:44:19.633Z,22.00
2019-05-01T08:45:19.722Z,21.40
2019-05-01T08:46:19.815Z,22.00
2019-05-01T08:47:20.707Z,21.50
2019-05-01T08:48:19.984Z,20.90
2019-05-01T08:49:20.086Z,20.70
2019-05-01T08:50:24.863Z,22.00
2019-05-01T08:51:20.259Z,21.20
2019-05-01T08:52:20.367Z,20.80
2019-05-01T08:53:22.132Z,20.70
2019-05-01T08:54:20.526Z,21.70
2019-05-01T08:55:20.622Z,19.90
2019-05-01T08:56:21.977Z,20.90
2019-05-01T08:57:20.805Z,19.60
2019-05-01T08:58:20.897Z,19.90
2019-05-01T08:59:23.896Z,19.30
2019-05-01T09:00:21.076Z,19.70
2019-05-01T09:01:21.172Z,20.70
2019-05-01T09:02:21.265Z,19.60
2019-05-01T09:03:21.351Z,20.00
2019-05-01T09:04:25.416Z,20.20
2019-05-01T09:05:29.170Z,20.30
2019-05-01T09:06:34.049Z,20.00
2019-05-01T09:07:24.064Z,19.90
2019-05-01T09:08:21.832Z,19.40
2019-05-01T09:09:21.930Z,18.60
2019-05-01T09:10:23.286Z,19.40
2019-05-01T09:11:22.118Z,18.10
2019-05-01T09:12:22.216Z,18.40
2019-05-01T09:13:23.833Z,18.40
2019-05-01T09:14:22.405Z,18.30
2019-05-01T09:15:22.499Z,19.50
2019-05-01T09:16:23.474Z,18.00
2019-05-01T09:17:22.695Z,19.30
2019-05-01T09:18:22.790Z,18.50
2019-05-01T09:19:22.887Z,18.40
2019-05-01T09:20:22.972Z,18.90
2019-05-01T09:23:09.525Z,18.20
2019-05-01T09:24:06.211Z,19.40
2019-05-01T09:25:06.309Z,19.20
2019-05-01T09:26:14.540Z,17.80
2019-05-01T09:27:06.507Z,18.50
2019-05-01T09:28:06.593Z,18.00
2019-05-01T09:29:06.697Z,17.70
2019-05-01T09:30:06.793Z,18.20
2019-05-01T09:31:06.889Z,19.10
2019-05-01T09:32:10.236Z,17.80
2019-05-01T09:33:07.079Z,18.60
2019-05-01T09:34:09.466Z,17.30
2019-05-01T09:35:15.554Z,17.80
2019-05-01T09:36:07.382Z,17.40
2019-05-01T09:37:07.479Z,17.30
2019-05-01T09:38:07.573Z,17.90
2019-05-01T09:39:07.671Z,17.70
2019-05-01T09:40:09.151Z,17.70
2019-05-01T09:41:07.858Z,17.10
2019-05-01T09:42:07.959Z,17.20
2019-05-01T09:43:08.056Z,17.00
2019-05-01T09:44:10.777Z,17.20
2019-05-01T09:45:08.247Z,16.40
2019-05-01T09:46:08.339Z,16.30
2019-05-01T09:47:08.441Z,16.70
2019-05-01T09:48:08.527Z,17.10
2019-05-01T09:49:08.624Z,15.60
2019-05-01T09:50:08.726Z,15.90
2019-05-01T09:51:08.823Z,15.10
2019-05-01T09:52:08.917Z,15.70
2019-05-01T09:53:09.010Z,16.20
2019-05-01T09:54:09.768Z,14.90
2019-05-01T09:55:09.208Z,15.10
2019-05-01T09:56:09.325Z,14.20
2019-05-01T09:57:09.434Z,14.30
2019-05-01T09:58:09.518Z,15.00
2019-05-01T09:59:12.697Z,14.00
2019-05-01T10:00:09.717Z,14.30
2019-05-01T10:01:09.823Z,14.10
2019-05-01T10:02:09.922Z,14.20
2019-05-01T10:03:13.062Z,14.30
2019-05-01T10:04:10.130Z,13.70
2019-05-01T10:05:10.228Z,14.00
2019-05-01T10:06:12.840Z,13.50
2019-05-01T10:07:10.423Z,14.00
2019-05-01T10:08:10.511Z,12.80
2019-05-01T10:09:12.077Z,12.50
2019-05-01T10:10:10.711Z,13.30
2019-05-01T10:11:10.808Z,13.00
2019-05-01T10:12:12.098Z,12.40
2019-05-01T10:13:10.997Z,12.90
2019-05-01T10:14:11.098Z,13.70
2019-05-01T10:15:11.192Z,12.60
2019-05-01T10:16:11.287Z,12.50
2019-05-01T10:17:13.492Z,13.20
2019-05-01T10:18:11.479Z,12.80
2019-05-01T10:19:11.576Z,12.70
2019-05-01T10:20:11.674Z,12.50
2019-05-01T10:21:11.771Z,11.40
2019-05-01T10:22:11.866Z,12.60
2019-05-01T10:23:13.165Z,12.70
2019-05-01T10:24:12.062Z,13.40
2019-05-01T10:25:13.437Z,13.60
2019-05-01T10:26:12.252Z,14.60
2019-05-01T10:27:12.350Z,14.90
2019-05-01T10:28:17.290Z,14.00
2019-05-01T10:29:12.550Z,14.00
2019-05-01T10:30:12.651Z,14.00
2019-05-01T10:31:13.219Z,14.30
2019-05-01T10:32:16.791Z,14.70
2019-05-01T10:33:12.938Z,14.80
2019-05-01T10:34:13.034Z,15.00
2019-05-01T10:35:14.184Z,14.00
2019-05-01T10:36:18.650Z,14.90
2019-05-01T10:37:13.333Z,14.80
2019-05-01T10:38:13.423Z,14.50
2019-05-01T10:39:15.992Z,14.30
2019-05-01T10:40:13.619Z,15.10
2019-05-01T10:41:13.713Z,14.20
2019-05-01T10:42:13.824Z,14.70
2019-05-01T10:43:13.903Z,14.50
2019-05-01T10:44:14.003Z,14.20
2019-05-01T10:45:14.103Z,14.80
2019-05-01T10:46:14.203Z,15.10
2019-05-01T10:47:14.301Z,15.10
2019-05-01T10:48:14.396Z,14.30
2019-05-01T10:49:14.489Z,14.00
2019-05-01T10:50:14.589Z,14.90
2019-05-01T10:51:14.685Z,15.10
2019-05-01T10:52:14.796Z,14.70
2019-05-01T10:53:14.881Z,15.10
2019-05-01T10:54:14.998Z,14.70
2019-05-01T10:55:15.078Z,14.50
2019-05-01T10:56:15.176Z,13.70
2019-05-01T10:57:15.275Z,13.70
2019-05-01T10:58:18.502Z,13.90
2019-05-01T10:59:15.471Z,13.80
2019-05-01T11:00:15.568Z,14.40
2019-05-01T11:01:15.666Z,13.80
2019-05-01T11:02:15.777Z,13.00
2019-05-01T11:03:15.863Z,14.00
2019-05-01T11:04:15.964Z,14.60
2019-05-01T11:05:16.062Z,14.70
2019-05-01T11:06:16.158Z,14.80
2019-05-01T11:07:16.255Z,14.30
2019-05-01T11:08:16.352Z,14.80
2019-05-01T11:09:16.449Z,14.20
2019-05-01T11:10:16.550Z,14.40
2019-05-01T11:11:16.654Z,15.50
2019-05-01T11:12:16.753Z,15.60
2019-05-01T11:13:16.851Z,14.50
2019-05-01T11:14:16.950Z,14.90
2019-05-01T11:15:17.046Z,14.00
2019-05-01T11:16:17.146Z,13.70
2019-05-01T11:17:17.246Z,13.80
2019-05-01T11:18:17.363Z,14.00
2019-05-01T11:19:17.439Z,14.40
2019-05-01T11:20:17.537Z,13.50
2019-05-01T11:21:17.638Z,14.00
2019-05-01T11:22:17.734Z,14.30
2019-05-01T11:23:17.832Z,13.70
2019-05-01T11:24:17.934Z,14.80
2019-05-01T11:25:18.039Z,14.80
2019-05-01T11:26:18.132Z,14.60
2019-05-01T11:27:18.230Z,13.90
2019-05-01T11:28:18.335Z,14.70
2019-05-01T11:29:18.426Z,15.30
2019-05-01T11:30:18.523Z,15.70
2019-05-01T11:31:18.622Z,14.40
2019-05-01T11:32:18.727Z,13.90
2019-05-01T11:33:18.823Z,13.50
2019-05-01T11:34:18.919Z,13.70
2019-05-01T11:35:19.021Z,12.90
2019-05-01T11:36:19.118Z,12.90
2019-05-01T11:37:19.216Z,13.20
2019-05-01T11:38:19.320Z,13.80
2019-05-01T11:39:19.414Z,15.70
2019-05-01T11:40:19.511Z,15.30
2019-05-01T11:41:19.614Z,15.60
2019-05-01T11:42:19.716Z,15.20
2019-05-01T11:43:19.815Z,14.70
2019-05-01T11:44:19.914Z,15.60
2019-05-01T11:45:20.031Z,15.90
2019-05-01T11:46:20.123Z,15.10
2019-05-01T11:47:20.225Z,15.40
2019-05-01T11:48:20.320Z,14.30
2019-05-01T11:49:20.418Z,14.20
2019-05-01T11:50:20.534Z,14.40
2019-05-01T11:51:20.613Z,14.20
2019-05-01T11:52:20.714Z,13.60
2019-05-01T11:53:20.816Z,13.80
2019-05-01T11:54:20.922Z,13.70
2019-05-01T11:55:21.018Z,13.60
2019-05-01T11:56:21.119Z,13.80
2019-05-01T11:57:21.214Z,12.80
2019-05-01T11:58:21.314Z,13.20
2019-05-01T11:59:21.409Z,13.00
2019-05-01T12:00:21.515Z,13.80
2019-05-01T12:01:21.623Z,13.70
2019-05-01T12:02:21.704Z,13.50
2019-05-01T12:03:21.801Z,13.90
2019-05-01T12:04:21.893Z,14.00
2019-05-01T12:05:21.973Z,13.60
2019-05-01T12:06:23.209Z,14.20
2019-05-01T12:07:22.178Z,13.60
2019-05-01T12:08:22.278Z,15.10
2019-05-01T12:09:22.379Z,14.20
2019-05-01T12:10:22.478Z,14.20
2019-05-01T12:11:22.577Z,13.80
2019-05-01T12:12:22.682Z,14.40
2019-05-01T12:13:22.776Z,13.80
2019-05-01T12:14:22.879Z,13.60
2019-05-01T12:15:22.976Z,14.30
2019-05-01T12:16:23.075Z,13.20
2019-05-01T12:17:23.177Z,12.60
2019-05-01T12:18:23.259Z,13.70
2019-05-01T12:19:23.359Z,13.50
2019-05-01T12:20:23.457Z,14.30
2019-05-01T12:21:23.559Z,13.40
2019-05-01T12:22:23.656Z,13.50
2019-05-01T12:23:23.757Z,12.40
2019-05-01T12:24:23.856Z,12.60
2019-05-01T12:25:23.954Z,11.70
2019-05-01T12:26:24.053Z,15.30
2019-05-01T12:27:24.153Z,17.00
2019-05-01T12:28:24.253Z,15.90
2019-05-01T12:29:24.353Z,15.20
2019-05-01T12:30:24.454Z,14.90
2019-05-01T12:31:24.549Z,13.00
2019-05-01T12:32:24.647Z,14.20
2019-05-01T12:33:24.744Z,14.50
2019-05-01T12:34:24.844Z,15.10
2019-05-01T12:35:24.939Z,15.40
2019-05-01T12:36:35.693Z,14.90
2019-05-01T12:37:25.144Z,15.70
2019-05-01T12:38:25.237Z,16.30
2019-05-01T12:39:25.337Z,15.40
2019-05-01T12:40:25.442Z,15.30
2019-05-01T12:41:25.545Z,15.10
2019-05-01T12:42:25.642Z,15.90
2019-05-01T12:43:25.745Z,16.20
2019-05-01T12:44:25.842Z,15.90
2019-05-01T12:45:25.941Z,14.80
2019-05-01T12:46:26.041Z,14.70
2019-05-01T12:47:26.139Z,14.00
2019-05-01T12:48:26.239Z,14.90
2019-05-01T12:49:26.339Z,14.30
2019-05-01T12:50:26.443Z,15.00
2019-05-01T12:51:26.540Z,14.40
2019-05-01T12:52:26.645Z,14.10
2019-05-01T12:53:26.749Z,14.10
2019-05-01T12:54:26.854Z,13.30
2019-05-01T12:55:26.951Z,14.20
2019-05-01T12:56:27.052Z,14.80
2019-05-01T12:57:27.151Z,14.90
2019-05-01T12:58:27.253Z,14.70